sensor_id;sensor_type;location;lat;lon;timestamp;P1;durP1;ratioP1;P2;durP2;ratioP2
49890;SDS011;35780;55.568;37.492;2023-07-09T00:01:47;15.52;;;6.95;;
49890;SDS011;35780;55.568;37.492;2023-07-09T00:04:13;11.93;;;6.47;;
49890;SDS011;35780;55.568;37.492;2023-07-09T00:06:41;15.05;;;6.88;;
49890;SDS011;35780;55.568;37.492;2023-07-09T00:09:13;12.20;;;6.38;;
49890;SDS011;35780;55.568;37.492;2023-07-09T00:11:40;15.73;;;6.93;;
49890;SDS011;35780;55.568;37.492;2023-07-09T00:14:07;17.75;;;7.28;;
49890;SDS011;35780;55.568;37.492;2023-07-09T00:16:33;10.40;;;6.47;;
49890;SDS011;35780;55.568;37.492;2023-07-09T00:19:00;13.60;;;5.85;;
49890;SDS011;35780;55.568;37.492;2023-07-09T00:21:27;10.63;;;6.55;;
49890;SDS011;35780;55.568;37.492;2023-07-09T00:23:58;13.23;;;6.45;;
49890;SDS011;35780;55.568;37.492;2023-07-09T00:26:28;13.75;;;6.97;;
49890;SDS011;35780;55.568;37.492;2023-07-09T00:28:55;26.38;;;6.97;;
49890;SDS011;35780;55.568;37.492;2023-07-09T00:31:20;16.17;;;6.30;;
49890;SDS011;35780;55.568;37.492;2023-07-09T00:33:48;10.35;;;6.32;;
49890;SDS011;35780;55.568;37.492;2023-07-09T00:36:22;17.48;;;6.43;;
49890;SDS011;35780;55.568;37.492;2023-07-09T00:38:52;17.90;;;6.90;;
49890;SDS011;35780;55.568;37.492;2023-07-09T00:41:18;11.80;;;6.15;;
49890;SDS011;35780;55.568;37.492;2023-07-09T00:43:46;14.20;;;6.47;;
49890;SDS011;35780;55.568;37.492;2023-07-09T00:48:45;11.43;;;6.63;;
49890;SDS011;35780;55.568;37.492;2023-07-09T00:51:16;13.32;;;6.15;;
49890;SDS011;35780;55.568;37.492;2023-07-09T00:53:45;23.83;;;8.15;;
49890;SDS011;35780;55.568;37.492;2023-07-09T00:56:13;17.65;;;6.53;;
49890;SDS011;35780;55.568;37.492;2023-07-09T00:58:41;14.95;;;6.40;;
49890;SDS011;35780;55.568;37.492;2023-07-09T01:01:11;12.50;;;5.65;;
49890;SDS011;35780;55.568;37.492;2023-07-09T01:03:42;14.00;;;5.80;;
49890;SDS011;35780;55.568;37.492;2023-07-09T01:06:11;13.25;;;6.07;;
49890;SDS011;35780;55.568;37.492;2023-07-09T01:08:38;11.77;;;6.57;;
49890;SDS011;35780;55.568;37.492;2023-07-09T01:11:17;12.38;;;5.95;;
49890;SDS011;35780;55.568;37.492;2023-07-09T01:13:48;13.20;;;6.15;;
49890;SDS011;35780;55.568;37.492;2023-07-09T01:16:16;16.88;;;6.93;;
49890;SDS011;35780;55.568;37.492;2023-07-09T01:18:42;13.90;;;6.18;;
49890;SDS011;35780;55.568;37.492;2023-07-09T01:21:09;15.15;;;6.05;;
49890;SDS011;35780;55.568;37.492;2023-07-09T01:23:47;11.23;;;5.90;;
49890;SDS011;35780;55.568;37.492;2023-07-09T01:26:16;10.93;;;6.40;;
49890;SDS011;35780;55.568;37.492;2023-07-09T01:28:44;12.70;;;6.65;;
49890;SDS011;35780;55.568;37.492;2023-07-09T01:31:10;12.68;;;6.35;;
49890;SDS011;35780;55.568;37.492;2023-07-09T01:33:38;12.20;;;6.68;;
49890;SDS011;35780;55.568;37.492;2023-07-09T01:36:05;15.80;;;6.72;;
49890;SDS011;35780;55.568;37.492;2023-07-09T01:38:32;12.93;;;6.80;;
49890;SDS011;35780;55.568;37.492;2023-07-09T01:40:58;14.52;;;7.43;;
49890;SDS011;35780;55.568;37.492;2023-07-09T01:43:25;12.32;;;7.00;;
49890;SDS011;35780;55.568;37.492;2023-07-09T01:45:51;9.77;;;6.22;;
49890;SDS011;35780;55.568;37.492;2023-07-09T01:48:17;14.05;;;6.47;;
49890;SDS011;35780;55.568;37.492;2023-07-09T01:50:46;13.13;;;6.32;;
49890;SDS011;35780;55.568;37.492;2023-07-09T01:53:14;13.93;;;6.75;;
49890;SDS011;35780;55.568;37.492;2023-07-09T01:55:41;14.57;;;6.70;;
49890;SDS011;35780;55.568;37.492;2023-07-09T01:58:07;13.45;;;7.20;;
49890;SDS011;35780;55.568;37.492;2023-07-09T02:00:33;20.35;;;6.78;;
49890;SDS011;35780;55.568;37.492;2023-07-09T02:03:02;13.38;;;6.93;;
49890;SDS011;35780;55.568;37.492;2023-07-09T02:05:32;18.58;;;7.50;;
49890;SDS011;35780;55.568;37.492;2023-07-09T02:07:58;14.15;;;7.28;;
49890;SDS011;35780;55.568;37.492;2023-07-09T02:10:24;14.18;;;6.97;;
49890;SDS011;35780;55.568;37.492;2023-07-09T02:12:49;13.23;;;7.38;;
49890;SDS011;35780;55.568;37.492;2023-07-09T02:15:15;16.70;;;7.35;;
49890;SDS011;35780;55.568;37.492;2023-07-09T02:17:41;16.27;;;7.30;;
49890;SDS011;35780;55.568;37.492;2023-07-09T02:20:07;14.68;;;8.10;;
49890;SDS011;35780;55.568;37.492;2023-07-09T02:22:34;13.32;;;6.65;;
49890;SDS011;35780;55.568;37.492;2023-07-09T02:25:00;14.27;;;7.38;;
49890;SDS011;35780;55.568;37.492;2023-07-09T02:27:25;21.23;;;8.32;;
49890;SDS011;35780;55.568;37.492;2023-07-09T02:29:51;16.52;;;8.05;;
49890;SDS011;35780;55.568;37.492;2023-07-09T02:32:18;17.27;;;7.75;;
49890;SDS011;35780;55.568;37.492;2023-07-09T02:34:45;17.20;;;8.20;;
49890;SDS011;35780;55.568;37.492;2023-07-09T02:37:14;21.88;;;8.02;;
49890;SDS011;35780;55.568;37.492;2023-07-09T02:39:40;14.13;;;7.85;;
49890;SDS011;35780;55.568;37.492;2023-07-09T02:42:08;11.77;;;6.75;;
49890;SDS011;35780;55.568;37.492;2023-07-09T02:44:35;26.88;;;7.93;;
49890;SDS011;35780;55.568;37.492;2023-07-09T02:47:00;14.73;;;7.10;;
49890;SDS011;35780;55.568;37.492;2023-07-09T02:49:26;23.13;;;7.47;;
49890;SDS011;35780;55.568;37.492;2023-07-09T02:51:51;14.77;;;6.65;;
49890;SDS011;35780;55.568;37.492;2023-07-09T02:54:17;14.27;;;7.45;;
49890;SDS011;35780;55.568;37.492;2023-07-09T02:56:42;14.57;;;6.78;;
49890;SDS011;35780;55.568;37.492;2023-07-09T02:59:08;14.27;;;7.03;;
49890;SDS011;35780;55.568;37.492;2023-07-09T03:01:33;21.95;;;7.35;;
49890;SDS011;35780;55.568;37.492;2023-07-09T03:03:59;18.48;;;7.70;;
49890;SDS011;35780;55.568;37.492;2023-07-09T03:06:27;14.23;;;7.80;;
49890;SDS011;35780;55.568;37.492;2023-07-09T03:08:53;12.13;;;7.07;;
49890;SDS011;35780;55.568;37.492;2023-07-09T03:11:19;16.65;;;8.38;;
49890;SDS011;35780;55.568;37.492;2023-07-09T03:13:45;15.52;;;7.93;;
49890;SDS011;35780;55.568;37.492;2023-07-09T03:16:10;11.32;;;6.95;;
49890;SDS011;35780;55.568;37.492;2023-07-09T03:18:36;14.60;;;7.10;;
49890;SDS011;35780;55.568;37.492;2023-07-09T03:21:01;11.50;;;6.43;;
49890;SDS011;35780;55.568;37.492;2023-07-09T03:23:27;13.80;;;7.03;;
49890;SDS011;35780;55.568;37.492;2023-07-09T03:25:54;13.45;;;6.85;;
49890;SDS011;35780;55.568;37.492;2023-07-09T03:28:20;22.30;;;7.15;;
49890;SDS011;35780;55.568;37.492;2023-07-09T03:30:46;13.77;;;6.85;;
49890;SDS011;35780;55.568;37.492;2023-07-09T03:33:13;13.65;;;7.55;;
49890;SDS011;35780;55.568;37.492;2023-07-09T03:35:40;15.18;;;8.07;;
49890;SDS011;35780;55.568;37.492;2023-07-09T03:38:05;14.10;;;8.05;;
49890;SDS011;35780;55.568;37.492;2023-07-09T03:40:32;13.02;;;8.45;;
49890;SDS011;35780;55.568;37.492;2023-07-09T03:42:57;15.35;;;8.40;;
49890;SDS011;35780;55.568;37.492;2023-07-09T03:45:23;17.40;;;8.18;;
49890;SDS011;35780;55.568;37.492;2023-07-09T03:47:49;22.98;;;8.50;;
49890;SDS011;35780;55.568;37.492;2023-07-09T03:50:14;21.05;;;8.13;;
49890;SDS011;35780;55.568;37.492;2023-07-09T03:52:40;13.27;;;6.88;;
49890;SDS011;35780;55.568;37.492;2023-07-09T03:55:06;13.15;;;7.40;;
49890;SDS011;35780;55.568;37.492;2023-07-09T03:57:32;14.43;;;6.72;;
49890;SDS011;35780;55.568;37.492;2023-07-09T03:59:58;13.05;;;6.30;;
49890;SDS011;35780;55.568;37.492;2023-07-09T04:02:24;16.13;;;6.35;;
49890;SDS011;35780;55.568;37.492;2023-07-09T04:04:49;13.43;;;5.65;;
49890;SDS011;35780;55.568;37.492;2023-07-09T04:07:15;11.85;;;4.93;;
49890;SDS011;35780;55.568;37.492;2023-07-09T04:09:41;12.00;;;5.00;;
49890;SDS011;35780;55.568;37.492;2023-07-09T04:12:07;9.75;;;4.97;;
49890;SDS011;35780;55.568;37.492;2023-07-09T04:14:33;10.75;;;4.97;;
49890;SDS011;35780;55.568;37.492;2023-07-09T04:16:59;8.60;;;4.60;;
49890;SDS011;35780;55.568;37.492;2023-07-09T04:19:24;13.50;;;4.80;;
49890;SDS011;35780;55.568;37.492;2023-07-09T04:21:50;11.27;;;4.97;;
49890;SDS011;35780;55.568;37.492;2023-07-09T04:24:16;13.40;;;5.10;;
49890;SDS011;35780;55.568;37.492;2023-07-09T04:26:42;8.13;;;4.10;;
49890;SDS011;35780;55.568;37.492;2023-07-09T04:29:08;6.50;;;3.92;;
49890;SDS011;35780;55.568;37.492;2023-07-09T04:31:33;7.20;;;3.75;;
49890;SDS011;35780;55.568;37.492;2023-07-09T04:33:59;8.30;;;4.15;;
49890;SDS011;35780;55.568;37.492;2023-07-09T04:36:24;5.47;;;3.03;;
49890;SDS011;35780;55.568;37.492;2023-07-09T04:38:51;7.68;;;3.03;;
49890;SDS011;35780;55.568;37.492;2023-07-09T04:41:17;6.13;;;3.42;;
49890;SDS011;35780;55.568;37.492;2023-07-09T04:43:42;8.00;;;3.65;;
49890;SDS011;35780;55.568;37.492;2023-07-09T04:46:08;7.70;;;2.90;;
49890;SDS011;35780;55.568;37.492;2023-07-09T04:48:33;7.45;;;3.30;;
49890;SDS011;35780;55.568;37.492;2023-07-09T04:50:59;5.95;;;3.17;;
49890;SDS011;35780;55.568;37.492;2023-07-09T04:53:25;5.28;;;2.92;;
49890;SDS011;35780;55.568;37.492;2023-07-09T04:55:52;9.38;;;3.15;;
49890;SDS011;35780;55.568;37.492;2023-07-09T04:58:18;4.60;;;2.78;;
49890;SDS011;35780;55.568;37.492;2023-07-09T05:00:44;5.32;;;3.15;;
49890;SDS011;35780;55.568;37.492;2023-07-09T05:03:10;7.10;;;3.08;;
49890;SDS011;35780;55.568;37.492;2023-07-09T05:05:41;4.30;;;2.83;;
49890;SDS011;35780;55.568;37.492;2023-07-09T05:08:08;6.70;;;3.83;;
49890;SDS011;35780;55.568;37.492;2023-07-09T05:10:33;5.07;;;3.03;;
49890;SDS011;35780;55.568;37.492;2023-07-09T05:12:59;5.45;;;2.97;;
49890;SDS011;35780;55.568;37.492;2023-07-09T05:15:24;5.55;;;3.40;;
49890;SDS011;35780;55.568;37.492;2023-07-09T05:17:50;8.20;;;3.35;;
49890;SDS011;35780;55.568;37.492;2023-07-09T05:20:16;5.43;;;2.83;;
49890;SDS011;35780;55.568;37.492;2023-07-09T05:22:42;5.68;;;2.67;;
49890;SDS011;35780;55.568;37.492;2023-07-09T05:25:07;8.15;;;3.28;;
49890;SDS011;35780;55.568;37.492;2023-07-09T05:27:33;6.72;;;3.15;;
49890;SDS011;35780;55.568;37.492;2023-07-09T05:29:59;9.70;;;3.38;;
49890;SDS011;35780;55.568;37.492;2023-07-09T05:32:25;7.32;;;3.65;;
49890;SDS011;35780;55.568;37.492;2023-07-09T05:34:50;7.03;;;3.70;;
49890;SDS011;35780;55.568;37.492;2023-07-09T05:37:16;10.93;;;4.05;;
49890;SDS011;35780;55.568;37.492;2023-07-09T05:39:41;14.38;;;4.05;;
49890;SDS011;35780;55.568;37.492;2023-07-09T05:42:07;6.63;;;4.63;;
49890;SDS011;35780;55.568;37.492;2023-07-09T05:44:33;8.82;;;3.90;;
49890;SDS011;35780;55.568;37.492;2023-07-09T05:46:58;9.13;;;5.60;;
49890;SDS011;35780;55.568;37.492;2023-07-09T05:49:24;9.45;;;3.95;;
49890;SDS011;35780;55.568;37.492;2023-07-09T05:51:49;7.95;;;4.45;;
49890;SDS011;35780;55.568;37.492;2023-07-09T05:54:15;7.10;;;4.10;;
49890;SDS011;35780;55.568;37.492;2023-07-09T05:56:40;10.15;;;4.07;;
49890;SDS011;35780;55.568;37.492;2023-07-09T05:59:06;9.15;;;4.63;;
49890;SDS011;35780;55.568;37.492;2023-07-09T06:01:31;10.98;;;5.07;;
49890;SDS011;35780;55.568;37.492;2023-07-09T06:03:57;6.72;;;4.35;;
49890;SDS011;35780;55.568;37.492;2023-07-09T06:06:22;12.65;;;4.40;;
49890;SDS011;35780;55.568;37.492;2023-07-09T06:08:48;8.23;;;3.65;;
49890;SDS011;35780;55.568;37.492;2023-07-09T06:11:18;10.55;;;4.30;;
49890;SDS011;35780;55.568;37.492;2023-07-09T06:13:43;12.73;;;4.07;;
49890;SDS011;35780;55.568;37.492;2023-07-09T06:16:09;8.90;;;3.85;;
49890;SDS011;35780;55.568;37.492;2023-07-09T06:18:34;6.03;;;3.65;;
49890;SDS011;35780;55.568;37.492;2023-07-09T06:21:00;15.07;;;5.45;;
49890;SDS011;35780;55.568;37.492;2023-07-09T06:23:27;12.10;;;3.67;;
49890;SDS011;35780;55.568;37.492;2023-07-09T06:25:53;6.88;;;4.30;;
49890;SDS011;35780;55.568;37.492;2023-07-09T06:28:20;7.90;;;3.88;;
49890;SDS011;35780;55.568;37.492;2023-07-09T06:30:47;8.63;;;3.60;;
49890;SDS011;35780;55.568;37.492;2023-07-09T06:33:13;7.20;;;3.55;;
49890;SDS011;35780;55.568;37.492;2023-07-09T06:35:51;7.38;;;4.05;;
49890;SDS011;35780;55.568;37.492;2023-07-09T06:38:21;11.07;;;4.00;;
49890;SDS011;35780;55.568;37.492;2023-07-09T06:40:47;7.50;;;4.00;;
49890;SDS011;35780;55.568;37.492;2023-07-09T06:43:13;12.70;;;4.60;;
49890;SDS011;35780;55.568;37.492;2023-07-09T06:45:39;10.77;;;4.20;;
49890;SDS011;35780;55.568;37.492;2023-07-09T06:48:04;11.20;;;4.75;;
49890;SDS011;35780;55.568;37.492;2023-07-09T06:50:33;11.40;;;4.25;;
49890;SDS011;35780;55.568;37.492;2023-07-09T06:52:59;12.85;;;4.88;;
49890;SDS011;35780;55.568;37.492;2023-07-09T06:55:25;7.60;;;4.13;;
49890;SDS011;35780;55.568;37.492;2023-07-09T06:57:51;13.35;;;3.80;;
49890;SDS011;35780;55.568;37.492;2023-07-09T07:00:16;5.72;;;3.50;;
49890;SDS011;35780;55.568;37.492;2023-07-09T07:02:42;7.53;;;2.97;;
49890;SDS011;35780;55.568;37.492;2023-07-09T07:05:08;7.88;;;3.33;;
49890;SDS011;35780;55.568;37.492;2023-07-09T07:07:33;8.88;;;3.30;;
49890;SDS011;35780;55.568;37.492;2023-07-09T07:09:59;6.82;;;3.38;;
49890;SDS011;35780;55.568;37.492;2023-07-09T07:12:26;7.78;;;3.13;;
49890;SDS011;35780;55.568;37.492;2023-07-09T07:14:52;7.47;;;3.35;;
49890;SDS011;35780;55.568;37.492;2023-07-09T07:17:18;6.72;;;3.45;;
49890;SDS011;35780;55.568;37.492;2023-07-09T07:19:44;7.55;;;2.75;;
49890;SDS011;35780;55.568;37.492;2023-07-09T07:22:10;7.88;;;2.95;;
49890;SDS011;35780;55.568;37.492;2023-07-09T07:24:35;7.05;;;2.92;;
49890;SDS011;35780;55.568;37.492;2023-07-09T07:27:01;6.75;;;3.03;;
49890;SDS011;35780;55.568;37.492;2023-07-09T07:29:26;5.63;;;3.33;;
49890;SDS011;35780;55.568;37.492;2023-07-09T07:31:53;6.18;;;3.30;;
49890;SDS011;35780;55.568;37.492;2023-07-09T07:34:19;7.72;;;3.08;;
49890;SDS011;35780;55.568;37.492;2023-07-09T07:36:44;11.18;;;3.78;;
49890;SDS011;35780;55.568;37.492;2023-07-09T07:39:10;8.55;;;3.10;;
49890;SDS011;35780;55.568;37.492;2023-07-09T07:41:35;5.40;;;3.28;;
49890;SDS011;35780;55.568;37.492;2023-07-09T07:44:01;5.18;;;2.90;;
49890;SDS011;35780;55.568;37.492;2023-07-09T07:46:26;7.53;;;3.38;;
49890;SDS011;35780;55.568;37.492;2023-07-09T07:48:52;10.13;;;3.40;;
49890;SDS011;35780;55.568;37.492;2023-07-09T07:51:17;6.72;;;3.38;;
49890;SDS011;35780;55.568;37.492;2023-07-09T07:53:43;7.13;;;3.35;;
49890;SDS011;35780;55.568;37.492;2023-07-09T07:56:09;7.47;;;3.85;;
49890;SDS011;35780;55.568;37.492;2023-07-09T07:58:35;12.07;;;3.90;;
49890;SDS011;35780;55.568;37.492;2023-07-09T08:01:00;6.70;;;3.50;;
49890;SDS011;35780;55.568;37.492;2023-07-09T08:03:26;11.30;;;3.75;;
49890;SDS011;35780;55.568;37.492;2023-07-09T08:05:51;7.20;;;3.47;;
49890;SDS011;35780;55.568;37.492;2023-07-09T08:08:17;12.60;;;3.85;;
49890;SDS011;35780;55.568;37.492;2023-07-09T08:10:43;7.07;;;3.67;;
49890;SDS011;35780;55.568;37.492;2023-07-09T08:13:08;9.18;;;3.28;;
49890;SDS011;35780;55.568;37.492;2023-07-09T08:15:34;9.07;;;3.40;;
49890;SDS011;35780;55.568;37.492;2023-07-09T08:18:00;14.65;;;3.70;;
49890;SDS011;35780;55.568;37.492;2023-07-09T08:20:25;15.65;;;4.00;;
49890;SDS011;35780;55.568;37.492;2023-07-09T08:22:51;8.52;;;2.85;;
49890;SDS011;35780;55.568;37.492;2023-07-09T08:25:17;6.65;;;3.28;;
49890;SDS011;35780;55.568;37.492;2023-07-09T08:27:42;6.90;;;3.00;;
49890;SDS011;35780;55.568;37.492;2023-07-09T08:30:08;8.85;;;2.88;;
49890;SDS011;35780;55.568;37.492;2023-07-09T08:32:33;8.57;;;3.08;;
49890;SDS011;35780;55.568;37.492;2023-07-09T08:34:59;7.38;;;3.10;;
49890;SDS011;35780;55.568;37.492;2023-07-09T08:37:24;8.02;;;4.00;;
49890;SDS011;35780;55.568;37.492;2023-07-09T08:39:50;6.82;;;2.90;;
49890;SDS011;35780;55.568;37.492;2023-07-09T08:42:17;8.48;;;3.30;;
49890;SDS011;35780;55.568;37.492;2023-07-09T08:45:10;8.45;;;2.88;;
49890;SDS011;35780;55.568;37.492;2023-07-09T08:50:57;4.72;;;3.08;;
49890;SDS011;35780;55.568;37.492;2023-07-09T08:53:36;5.20;;;2.95;;
49890;SDS011;35780;55.568;37.492;2023-07-09T08:56:10;6.97;;;2.92;;
49890;SDS011;35780;55.568;37.492;2023-07-09T08:58:36;4.30;;;2.88;;
49890;SDS011;35780;55.568;37.492;2023-07-09T09:01:03;7.38;;;2.78;;
49890;SDS011;35780;55.568;37.492;2023-07-09T09:03:40;10.20;;;3.38;;
49890;SDS011;35780;55.568;37.492;2023-07-09T09:06:12;7.63;;;3.10;;
49890;SDS011;35780;55.568;37.492;2023-07-09T09:08:54;7.72;;;3.63;;
49890;SDS011;35780;55.568;37.492;2023-07-09T09:13:53;5.82;;;3.03;;
49890;SDS011;35780;55.568;37.492;2023-07-09T09:16:22;7.95;;;2.60;;
49890;SDS011;35780;55.568;37.492;2023-07-09T09:18:50;7.88;;;3.40;;
49890;SDS011;35780;55.568;37.492;2023-07-09T09:21:21;10.77;;;2.93;;
49890;SDS011;35780;55.568;37.492;2023-07-09T09:23:52;10.77;;;3.42;;
49890;SDS011;35780;55.568;37.492;2023-07-09T09:26:33;9.45;;;3.20;;
49890;SDS011;35780;55.568;37.492;2023-07-09T09:28:59;4.85;;;3.00;;
49890;SDS011;35780;55.568;37.492;2023-07-09T09:31:28;5.35;;;2.92;;
49890;SDS011;35780;55.568;37.492;2023-07-09T09:33:54;8.45;;;3.72;;
49890;SDS011;35780;55.568;37.492;2023-07-09T09:36:21;4.82;;;3.00;;
49890;SDS011;35780;55.568;37.492;2023-07-09T09:38:48;4.38;;;3.22;;
49890;SDS011;35780;55.568;37.492;2023-07-09T09:41:19;11.15;;;3.10;;
49890;SDS011;35780;55.568;37.492;2023-07-09T09:43:47;11.57;;;3.38;;
49890;SDS011;35780;55.568;37.492;2023-07-09T09:46:17;11.23;;;3.20;;
49890;SDS011;35780;55.568;37.492;2023-07-09T09:48:46;11.15;;;3.22;;
49890;SDS011;35780;55.568;37.492;2023-07-09T09:51:14;5.15;;;3.63;;
49890;SDS011;35780;55.568;37.492;2023-07-09T09:53:40;7.63;;;3.38;;
49890;SDS011;35780;55.568;37.492;2023-07-09T09:56:11;5.13;;;3.17;;
49890;SDS011;35780;55.568;37.492;2023-07-09T09:58:40;5.72;;;3.20;;
49890;SDS011;35780;55.568;37.492;2023-07-09T10:01:11;7.18;;;3.63;;
49890;SDS011;35780;55.568;37.492;2023-07-09T10:03:41;6.25;;;3.40;;
49890;SDS011;35780;55.568;37.492;2023-07-09T10:06:19;7.38;;;3.60;;
49890;SDS011;35780;55.568;37.492;2023-07-09T10:09:00;9.20;;;3.70;;
49890;SDS011;35780;55.568;37.492;2023-07-09T10:11:44;7.55;;;3.58;;
49890;SDS011;35780;55.568;37.492;2023-07-09T10:17:04;9.55;;;3.10;;
49890;SDS011;35780;55.568;37.492;2023-07-09T10:20:03;5.20;;;3.15;;
49890;SDS011;35780;55.568;37.492;2023-07-09T10:33:28;5.68;;;2.95;;
49890;SDS011;35780;55.568;37.492;2023-07-09T10:40:59;9.75;;;3.75;;
49890;SDS011;35780;55.568;37.492;2023-07-09T10:43:47;6.90;;;3.40;;
49890;SDS011;35780;55.568;37.492;2023-07-09T10:46:20;8.07;;;3.50;;
49890;SDS011;35780;55.568;37.492;2023-07-09T10:48:49;11.15;;;3.13;;
49890;SDS011;35780;55.568;37.492;2023-07-09T10:51:19;11.40;;;3.40;;
49890;SDS011;35780;55.568;37.492;2023-07-09T10:54:07;6.15;;;2.97;;
49890;SDS011;35780;55.568;37.492;2023-07-09T10:56:55;5.60;;;3.13;;
49890;SDS011;35780;55.568;37.492;2023-07-09T10:59:32;12.75;;;3.30;;
49890;SDS011;35780;55.568;37.492;2023-07-09T11:02:21;4.55;;;2.95;;
49890;SDS011;35780;55.568;37.492;2023-07-09T11:04:51;7.38;;;3.17;;
49890;SDS011;35780;55.568;37.492;2023-07-09T11:07:43;9.48;;;3.10;;
49890;SDS011;35780;55.568;37.492;2023-07-09T11:10:22;5.88;;;3.30;;
49890;SDS011;35780;55.568;37.492;2023-07-09T11:15:34;14.35;;;3.65;;
49890;SDS011;35780;55.568;37.492;2023-07-09T11:18:03;11.20;;;3.63;;
49890;SDS011;35780;55.568;37.492;2023-07-09T11:20:34;6.43;;;3.05;;
49890;SDS011;35780;55.568;37.492;2023-07-09T11:23:06;6.85;;;2.97;;
49890;SDS011;35780;55.568;37.492;2023-07-09T11:25:43;6.82;;;2.92;;
49890;SDS011;35780;55.568;37.492;2023-07-09T11:28:10;9.07;;;3.30;;
49890;SDS011;35780;55.568;37.492;2023-07-09T11:33:16;9.68;;;3.38;;
49890;SDS011;35780;55.568;37.492;2023-07-09T11:35:47;9.18;;;3.35;;
49890;SDS011;35780;55.568;37.492;2023-07-09T11:38:16;9.05;;;3.33;;
49890;SDS011;35780;55.568;37.492;2023-07-09T11:40:50;8.95;;;3.20;;
49890;SDS011;35780;55.568;37.492;2023-07-09T11:46:14;12.30;;;4.47;;
49890;SDS011;35780;55.568;37.492;2023-07-09T11:48:43;10.70;;;3.30;;
49890;SDS011;35780;55.568;37.492;2023-07-09T11:51:16;8.43;;;3.80;;
49890;SDS011;35780;55.568;37.492;2023-07-09T11:53:44;5.40;;;3.10;;
49890;SDS011;35780;55.568;37.492;2023-07-09T11:56:13;4.60;;;2.95;;
49890;SDS011;35780;55.568;37.492;2023-07-09T11:58:48;6.13;;;3.45;;
49890;SDS011;35780;55.568;37.492;2023-07-09T12:01:15;9.30;;;3.70;;
49890;SDS011;35780;55.568;37.492;2023-07-09T12:03:42;8.60;;;3.40;;
49890;SDS011;35780;55.568;37.492;2023-07-09T12:06:16;9.00;;;3.38;;
49890;SDS011;35780;55.568;37.492;2023-07-09T12:08:46;6.43;;;3.38;;
49890;SDS011;35780;55.568;37.492;2023-07-09T12:13:51;7.50;;;3.25;;
49890;SDS011;35780;55.568;37.492;2023-07-09T12:16:19;13.40;;;3.45;;
49890;SDS011;35780;55.568;37.492;2023-07-09T12:18:45;4.70;;;3.00;;
49890;SDS011;35780;55.568;37.492;2023-07-09T12:21:11;4.18;;;2.78;;
49890;SDS011;35780;55.568;37.492;2023-07-09T12:23:37;7.93;;;3.10;;
49890;SDS011;35780;55.568;37.492;2023-07-09T12:26:05;5.55;;;3.10;;
49890;SDS011;35780;55.568;37.492;2023-07-09T12:28:32;8.77;;;3.28;;
49890;SDS011;35780;55.568;37.492;2023-07-09T12:30:58;4.97;;;3.15;;
49890;SDS011;35780;55.568;37.492;2023-07-09T12:33:27;4.57;;;2.70;;
49890;SDS011;35780;55.568;37.492;2023-07-09T12:35:57;13.27;;;3.53;;
49890;SDS011;35780;55.568;37.492;2023-07-09T12:38:24;11.65;;;3.80;;
49890;SDS011;35780;55.568;37.492;2023-07-09T12:40:51;7.13;;;3.75;;
49890;SDS011;35780;55.568;37.492;2023-07-09T12:43:19;7.05;;;3.00;;
49890;SDS011;35780;55.568;37.492;2023-07-09T12:45:50;8.88;;;3.08;;
49890;SDS011;35780;55.568;37.492;2023-07-09T12:48:16;9.48;;;3.13;;
49890;SDS011;35780;55.568;37.492;2023-07-09T12:50:47;7.05;;;2.78;;
49890;SDS011;35780;55.568;37.492;2023-07-09T12:53:16;5.43;;;3.08;;
49890;SDS011;35780;55.568;37.492;2023-07-09T12:55:46;10.23;;;3.58;;
49890;SDS011;35780;55.568;37.492;2023-07-09T12:58:18;15.75;;;3.17;;
49890;SDS011;35780;55.568;37.492;2023-07-09T13:00:49;6.70;;;3.00;;
49890;SDS011;35780;55.568;37.492;2023-07-09T13:03:26;7.80;;;3.00;;
49890;SDS011;35780;55.568;37.492;2023-07-09T13:08:22;5.65;;;2.70;;
49890;SDS011;35780;55.568;37.492;2023-07-09T13:10:48;6.68;;;2.90;;
49890;SDS011;35780;55.568;37.492;2023-07-09T13:13:19;11.18;;;3.45;;
49890;SDS011;35780;55.568;37.492;2023-07-09T13:16:06;9.60;;;2.72;;
49890;SDS011;35780;55.568;37.492;2023-07-09T13:18:31;8.63;;;2.78;;
49890;SDS011;35780;55.568;37.492;2023-07-09T13:20:57;4.93;;;2.72;;
49890;SDS011;35780;55.568;37.492;2023-07-09T13:23:24;6.15;;;2.90;;
49890;SDS011;35780;55.568;37.492;2023-07-09T13:25:51;5.82;;;3.33;;
49890;SDS011;35780;55.568;37.492;2023-07-09T13:28:22;11.88;;;3.75;;
49890;SDS011;35780;55.568;37.492;2023-07-09T13:30:53;7.97;;;3.50;;
49890;SDS011;35780;55.568;37.492;2023-07-09T13:33:22;6.07;;;2.95;;
49890;SDS011;35780;55.568;37.492;2023-07-09T13:35:48;7.80;;;2.85;;
49890;SDS011;35780;55.568;37.492;2023-07-09T13:38:18;9.55;;;3.33;;
49890;SDS011;35780;55.568;37.492;2023-07-09T13:40:46;4.72;;;2.65;;
49890;SDS011;35780;55.568;37.492;2023-07-09T13:43:19;5.75;;;3.25;;
49890;SDS011;35780;55.568;37.492;2023-07-09T13:45:48;5.00;;;2.70;;
49890;SDS011;35780;55.568;37.492;2023-07-09T13:48:16;5.72;;;2.55;;
49890;SDS011;35780;55.568;37.492;2023-07-09T13:50:44;5.88;;;2.88;;
49890;SDS011;35780;55.568;37.492;2023-07-09T13:53:14;7.63;;;3.88;;
49890;SDS011;35780;55.568;37.492;2023-07-09T13:55:42;6.13;;;3.58;;
49890;SDS011;35780;55.568;37.492;2023-07-09T13:58:11;8.80;;;2.90;;
49890;SDS011;35780;55.568;37.492;2023-07-09T14:00:39;10.05;;;3.17;;
49890;SDS011;35780;55.568;37.492;2023-07-09T14:03:23;5.72;;;2.90;;
49890;SDS011;35780;55.568;37.492;2023-07-09T14:05:53;9.45;;;2.92;;
49890;SDS011;35780;55.568;37.492;2023-07-09T14:08:19;7.80;;;2.85;;
49890;SDS011;35780;55.568;37.492;2023-07-09T14:10:47;7.03;;;3.00;;
49890;SDS011;35780;55.568;37.492;2023-07-09T14:13:17;7.93;;;2.78;;
49890;SDS011;35780;55.568;37.492;2023-07-09T14:15:44;10.50;;;3.13;;
49890;SDS011;35780;55.568;37.492;2023-07-09T14:18:20;6.63;;;3.08;;
49890;SDS011;35780;55.568;37.492;2023-07-09T14:20:46;8.43;;;3.30;;
49890;SDS011;35780;55.568;37.492;2023-07-09T14:23:13;7.82;;;2.92;;
49890;SDS011;35780;55.568;37.492;2023-07-09T14:25:41;5.60;;;3.00;;
49890;SDS011;35780;55.568;37.492;2023-07-09T14:28:11;10.55;;;3.67;;
49890;SDS011;35780;55.568;37.492;2023-07-09T14:30:38;5.43;;;2.85;;
49890;SDS011;35780;55.568;37.492;2023-07-09T14:33:07;6.90;;;3.03;;
49890;SDS011;35780;55.568;37.492;2023-07-09T14:35:36;6.28;;;3.03;;
49890;SDS011;35780;55.568;37.492;2023-07-09T14:38:03;7.05;;;3.15;;
49890;SDS011;35780;55.568;37.492;2023-07-09T14:40:31;14.00;;;3.08;;
49890;SDS011;35780;55.568;37.492;2023-07-09T14:43:00;10.60;;;3.28;;
49890;SDS011;35780;55.568;37.492;2023-07-09T14:45:27;5.13;;;2.90;;
49890;SDS011;35780;55.568;37.492;2023-07-09T14:47:57;5.45;;;2.90;;
49890;SDS011;35780;55.568;37.492;2023-07-09T14:50:23;8.18;;;3.22;;
49890;SDS011;35780;55.568;37.492;2023-07-09T14:52:48;7.45;;;3.22;;
49890;SDS011;35780;55.568;37.492;2023-07-09T14:57:45;11.35;;;3.40;;
49890;SDS011;35780;55.568;37.492;2023-07-09T15:00:14;6.57;;;2.55;;
49890;SDS011;35780;55.568;37.492;2023-07-09T15:02:42;7.10;;;2.97;;
49890;SDS011;35780;55.568;37.492;2023-07-09T15:05:13;16.45;;;3.47;;
49890;SDS011;35780;55.568;37.492;2023-07-09T15:07:40;8.18;;;3.58;;
49890;SDS011;35780;55.568;37.492;2023-07-09T15:10:06;9.85;;;3.30;;
49890;SDS011;35780;55.568;37.492;2023-07-09T15:12:33;7.68;;;3.53;;
49890;SDS011;35780;55.568;37.492;2023-07-09T15:17:47;6.90;;;2.58;;
49890;SDS011;35780;55.568;37.492;2023-07-09T15:20:21;9.80;;;3.47;;